Time;durP1;ratioP1;P1;durP2;ratioP2;P2;SDS_P1;SDS_P2;PMS_P1;PMS_P2;Temp;Humidity;BMP_temperature;BMP_pressure;BME280_temperature;BME280_humidity;BME280_pressure;Samples;Min_cycle;Max_cycle;Signal;HPM_P1;HPM_P2
2023/07/14 00:01:53;;;;;;;8.38;3.47;;;;;;;16.30;63.19;100089.09;4978743;28;20050;-49
2023/07/14 00:07:03;;;;;;;4.93;1.63;;;;;;;16.24;63.65;100087.50;5046933;27;20405;-44
2023/07/14 00:09:32;;;;;;;3.85;1.83;;;;;;;16.21;63.23;100090.16;5017745;28;20557;-45
2023/07/14 00:11:59;;;;;;;4.70;2.30;;;;;;;16.17;63.08;100086.78;5019962;28;20686;-47
2023/07/14 00:14:27;;;;;;;4.30;1.42;;;;;;;16.14;63.32;100086.88;5026164;28;20048;-43
2023/07/14 00:16:54;;;;;;;8.82;2.03;;;;;;;16.12;63.66;100083.44;5017315;28;20064;-44
2023/07/14 00:19:21;;;;;;;4.20;1.90;;;;;;;16.10;63.32;100084.34;5018819;28;20044;-43
2023/07/14 00:21:49;;;;;;;5.65;2.25;;;;;;;16.08;63.50;100081.81;5019940;28;20049;-45
2023/07/14 00:24:18;;;;;;;4.97;2.15;;;;;;;16.08;63.32;100081.81;5015610;28;20046;-42
2023/07/14 00:26:49;;;;;;;8.00;1.85;;;;;;;16.06;63.68;100088.81;5015918;28;20128;-45
2023/07/14 00:32:10;;;;;;;5.90;2.00;;;;;;;15.99;64.00;100076.81;5041427;27;20410;-44
2023/07/14 00:34:37;;;;;;;4.07;2.25;;;;;;;15.99;63.59;100066.34;5012188;28;20130;-45
2023/07/14 00:37:04;;;;;;;5.88;1.80;;;;;;;15.98;64.11;100067.25;5005275;28;20132;-46
2023/07/14 00:39:31;;;;;;;4.25;2.03;;;;;;;15.96;64.03;100064.69;5010627;28;20462;-45
2023/07/14 00:41:57;;;;;;;7.22;1.90;;;;;;;15.95;64.24;100060.38;5018372;28;20049;-45
2023/07/14 00:44:24;;;;;;;6.05;2.03;;;;;;;15.93;64.00;100068.19;5012164;28;20060;-44
2023/07/14 00:46:51;;;;;;;4.65;2.00;;;;;;;15.92;63.99;100055.19;5006656;28;20076;-44
2023/07/14 00:49:31;;;;;;;7.00;1.95;;;;;;;15.91;63.62;100059.53;5007817;28;20046;-47
2023/07/14 00:52:05;;;;;;;3.75;1.95;;;;;;;15.89;63.68;100050.91;5008598;28;20049;-47
2023/07/14 00:54:32;;;;;;;3.92;1.90;;;;;;;15.87;63.82;100050.06;5014028;28;20046;-45
2023/07/14 00:57:00;;;;;;;6.50;2.10;;;;;;;15.88;64.18;100043.09;5006950;28;20061;-44
2023/07/14 00:59:33;;;;;;;3.55;1.85;;;;;;;15.85;64.34;100057.09;5008550;28;20395;-45
2023/07/14 01:02:21;;;;;;;6.28;2.10;;;;;;;15.75;63.83;100045.16;5010154;28;20054;-46
2023/07/14 01:05:01;;;;;;;5.00;1.73;;;;;;;15.80;64.44;100051.09;5008781;28;20049;-46
2023/07/14 01:07:39;;;;;;;4.13;1.85;;;;;;;15.79;63.78;100052.00;5013865;28;20041;-46
2023/07/14 01:10:09;;;;;;;4.38;2.00;;;;;;;15.78;63.82;100052.91;5007333;28;20044;-45
2023/07/14 01:12:40;;;;;;;3.75;2.00;;;;;;;15.77;64.17;100053.81;5012205;28;20568;-46
2023/07/14 01:15:08;;;;;;;9.95;3.53;;;;;;;15.76;64.37;100047.72;5015582;28;20050;-46
2023/07/14 01:17:36;;;;;;;3.47;2.28;;;;;;;15.77;64.22;100048.59;5007438;28;20054;-44
2023/07/14 01:20:08;;;;;;;3.53;2.17;;;;;;;15.75;64.28;100039.91;5016075;28;20042;-43
2023/07/14 01:23:13;;;;;;;6.20;1.75;;;;;;;15.67;63.94;100035.75;5010188;28;20073;-44
2023/07/14 01:25:59;;;;;;;4.38;2.10;;;;;;;15.70;64.36;100028.75;5009922;28;20057;-46
2023/07/14 01:28:26;;;;;;;2.97;1.73;;;;;;;15.71;64.38;100031.31;5019374;28;20046;-44
2023/07/14 01:30:52;;;;;;;4.45;1.88;;;;;;;15.71;64.14;100030.44;5016581;28;20054;-47
2023/07/14 01:33:19;;;;;;;4.72;1.73;;;;;;;15.71;64.12;100014.78;5008171;28;20080;-43
2023/07/14 01:35:51;;;;;;;3.75;1.63;;;;;;;15.72;64.21;100021.72;5008725;28;20050;-45
2023/07/14 01:38:19;;;;;;;3.75;1.98;;;;;;;15.72;64.70;100021.72;5002371;28;20061;-44
2023/07/14 01:40:46;;;;;;;7.47;2.03;;;;;;;15.71;64.29;100007.81;5014129;28;20080;-44
2023/07/14 01:43:13;;;;;;;4.65;2.30;;;;;;;15.72;64.76;100013.88;5003206;28;20073;-45
2023/07/14 01:45:48;;;;;;;4.20;1.73;;;;;;;15.72;64.41;100019.09;5002850;28;20056;-43
2023/07/14 01:48:19;;;;;;;7.50;2.38;;;;;;;15.72;64.65;100011.28;4998239;28;20053;-42
2023/07/14 01:50:50;;;;;;;4.57;2.00;;;;;;;15.73;64.26;100015.59;4997749;28;20052;-45
2023/07/14 01:53:24;;;;;;;3.90;1.77;;;;;;;15.73;64.43;100012.97;4998106;28;20502;-46
2023/07/14 01:55:54;;;;;;;4.80;2.10;;;;;;;15.74;64.42;100015.56;4989897;28;20469;-43
2023/07/14 01:58:25;;;;;;;6.13;2.17;;;;;;;15.75;64.85;100016.41;4998684;28;20714;-45
2023/07/14 02:00:53;;;;;;;4.35;2.00;;;;;;;15.76;64.38;100010.28;4992551;28;20133;-43
2023/07/14 02:03:40;;;;;;;3.53;2.00;;;;;;;15.75;64.17;100003.38;5004265;28;20129;-45
2023/07/14 02:06:07;;;;;;;6.22;2.00;;;;;;;15.77;64.31;100006.81;4985607;28;20062;-47
2023/07/14 02:08:34;;;;;;;4.18;2.45;;;;;;;15.77;64.26;100004.19;4989600;28;20050;-42
2023/07/14 02:11:00;;;;;;;5.72;2.30;;;;;;;15.78;64.45;100001.53;4984968;28;20053;-46
2023/07/14 02:13:28;;;;;;;6.13;2.30;;;;;;;15.80;64.77;99993.66;4996785;28;20050;-46
2023/07/14 02:15:55;;;;;;;5.03;2.08;;;;;;;15.81;64.58;99990.16;5002268;28;20586;-45
2023/07/14 02:18:26;;;;;;;6.15;2.78;;;;;;;15.82;64.96;99986.66;4997125;28;20050;-43
2023/07/14 02:20:54;;;;;;;8.70;2.92;;;;;;;15.84;64.41;99984.84;4998915;28;20367;-44
2023/07/14 02:23:24;;;;;;;4.65;1.92;;;;;;;15.85;64.36;99986.56;4997769;28;20056;-42
2023/07/14 02:26:20;;;;;;;5.05;1.83;;;;;;;15.80;64.58;99988.44;4995254;28;20046;-44
2023/07/14 02:28:46;;;;;;;4.80;1.88;;;;;;;15.80;64.85;99988.44;4998206;28;20045;-44
2023/07/14 02:31:21;;;;;;;4.38;2.60;;;;;;;15.79;64.42;99981.50;4998196;28;20717;-43
2023/07/14 02:33:50;;;;;;;4.95;2.00;;;;;;;15.80;64.57;99983.19;5001185;28;20085;-43
2023/07/14 02:36:53;;;;;;;3.95;2.17;;;;;;;15.73;65.05;99982.50;4989313;28;20049;-44
2023/07/14 02:39:19;;;;;;;6.78;2.53;;;;;;;15.79;64.89;99966.69;4991221;28;20054;-42
2023/07/14 02:41:48;;;;;;;4.90;2.25;;;;;;;15.79;65.10;99971.91;5002943;28;20046;-45
2023/07/14 02:44:18;;;;;;;4.95;2.20;;;;;;;15.79;64.62;99965.84;4993529;28;20070;-43
2023/07/14 02:49:20;;;;;;;5.70;3.22;;;;;;;15.76;65.16;99965.91;5099701;27;20406;-42
2023/07/14 02:51:47;;;;;;;5.50;4.05;;;;;;;15.74;64.81;99965.09;5051817;28;20052;-42
2023/07/14 02:54:13;;;;;;;11.55;4.50;;;;;;;15.72;65.15;99954.69;5057692;28;20107;-43
2023/07/14 02:56:40;;;;;;;6.68;4.13;;;;;;;15.71;64.79;99954.72;5060688;28;20052;-45
2023/07/14 02:59:12;;;;;;;6.20;2.70;;;;;;;15.70;65.04;99951.25;5074609;28;20419;-46
2023/07/14 03:01:39;;;;;;;6.32;3.78;;;;;;;15.68;65.04;99953.06;5079540;28;20044;-45
2023/07/14 03:04:06;;;;;;;6.68;3.90;;;;;;;15.66;65.34;99945.25;5082385;28;20052;-44
2023/07/14 03:06:32;;;;;;;8.05;3.95;;;;;;;15.65;65.02;99943.56;5078515;28;20055;-46
2023/07/14 03:08:59;;;;;;;6.40;3.70;;;;;;;15.66;65.43;99947.00;5073795;28;20041;-44
2023/07/14 03:11:26;;;;;;;6.45;3.92;;;;;;;15.65;65.57;99938.34;5081239;28;20036;-46
2023/07/14 03:13:53;;;;;;;7.47;3.25;;;;;;;15.66;65.37;99942.66;5082430;28;20456;-45
2023/07/14 03:16:20;;;;;;;9.23;3.85;;;;;;;15.66;65.44;99942.66;5082451;28;20045;-44
2023/07/14 03:18:48;;;;;;;7.60;4.22;;;;;;;15.67;65.26;99933.03;5079828;28;20076;-44
2023/07/14 03:21:14;;;;;;;7.88;3.28;;;;;;;15.67;65.51;99941.75;5083096;28;20570;-45
2023/07/14 03:23:42;;;;;;;6.05;2.83;;;;;;;15.67;65.38;99928.69;5064285;28;20613;-45
2023/07/14 03:26:09;;;;;;;9.48;3.50;;;;;;;15.68;65.63;99930.41;5056725;28;20536;-44
2023/07/14 03:28:36;;;;;;;9.02;3.53;;;;;;;15.70;65.31;99924.31;5080146;28;20051;-44
2023/07/14 03:31:04;;;;;;;6.25;3.47;;;;;;;15.71;65.60;99926.00;5078987;28;20058;-43
2023/07/14 03:33:33;;;;;;;6.55;3.92;;;;;;;15.71;65.47;99918.19;5082804;28;20062;-46
2023/07/14 03:36:01;;;;;;;;;;;;;;;15.55;65.75;99918.56;5083774;28;20071;-43
2023/07/14 03:38:28;;;;;;;6.63;3.95;;;;;;;15.65;65.41;99912.22;5082137;28;19920;-43
2023/07/14 03:40:54;;;;;;;7.07;3.85;;;;;;;15.64;65.47;99915.72;5076888;28;20057;-42
2023/07/14 03:43:21;;;;;;;6.18;4.30;;;;;;;15.60;65.05;99924.53;5082241;28;20040;-43
2023/07/14 03:45:48;;;;;;;4.80;3.13;;;;;;;15.57;65.37;99914.16;5082146;28;20044;-44
2023/07/14 03:48:14;;;;;;;4.85;3.40;;;;;;;15.54;66.07;99919.47;5081135;28;20071;-44
2023/07/14 03:50:41;;;;;;;5.35;3.67;;;;;;;15.52;66.10;99916.03;5079850;28;20050;-44
2023/07/14 03:53:08;;;;;;;4.57;2.33;;;;;;;15.50;66.02;99908.25;5080447;28;20530;-43
2023/07/14 03:55:34;;;;;;;7.50;4.18;;;;;;;15.47;66.39;99902.25;5079717;28;20045;-43
2023/07/14 03:58:01;;;;;;;4.45;2.97;;;;;;;15.46;65.70;99905.75;5081803;28;20047;-44
2023/07/14 04:00:31;;;;;;;12.18;3.47;;;;;;;15.45;66.17;99901.44;5069708;28;20113;-45
2023/07/14 04:02:58;;;;;;;7.28;3.15;;;;;;;15.45;65.80;99898.81;5067271;28;20071;-42
2023/07/14 04:05:26;;;;;;;6.75;3.67;;;;;;;15.44;66.49;99902.34;5067250;28;20044;-45
2023/07/14 04:07:53;;;;;;;8.10;3.58;;;;;;;15.41;66.62;99898.88;5068008;28;20549;-46
2023/07/14 04:10:19;;;;;;;6.20;3.28;;;;;;;15.42;66.39;99889.31;5066987;28;20049;-44
2023/07/14 04:12:48;;;;;;;9.35;4.25;;;;;;;15.40;66.33;99891.97;5068115;28;20488;-46
2023/07/14 04:15:15;;;;;;;8.95;3.33;;;;;;;15.38;66.14;99896.38;5065335;28;20056;-44
2023/07/14 04:17:41;;;;;;;5.07;3.38;;;;;;;15.34;66.22;99892.13;5067165;28;20040;-46
2023/07/14 04:20:10;;;;;;;6.57;4.15;;;;;;;15.32;66.35;99896.53;5067157;28;20044;-43
2023/07/14 04:22:36;;;;;;;5.65;3.25;;;;;;;15.29;66.47;99888.75;5067730;28;20496;-46
2023/07/14 04:25:03;;;;;;;8.25;4.05;;;;;;;15.30;66.69;99890.47;5066594;28;20112;-44
2023/07/14 04:27:30;;;;;;;8.60;3.83;;;;;;;15.28;66.64;99879.22;5067512;28;20045;-46
2023/07/14 04:29:59;;;;;;;5.03;3.42;;;;;;;15.28;67.05;99881.84;5068095;28;20051;-46
2023/07/14 04:32:26;;;;;;;7.45;3.72;;;;;;;15.27;67.36;99874.91;5065745;28;20048;-45
2023/07/14 04:34:53;;;;;;;5.03;3.22;;;;;;;15.27;66.65;99872.31;5067802;28;20088;-45
2023/07/14 04:37:19;;;;;;;4.43;3.15;;;;;;;15.26;67.25;99865.34;5067367;28;20041;-43
2023/07/14 04:39:46;;;;;;;8.25;4.10;;;;;;;15.26;67.31;99867.97;5061939;28;20040;-45
2023/07/14 04:42:13;;;;;;;7.10;3.00;;;;;;;15.27;67.19;99867.09;5066097;28;20040;-44
2023/07/14 04:44:40;;;;;;;5.47;3.72;;;;;;;15.28;67.44;99856.63;5067240;28;20052;-46
2023/07/14 04:47:07;;;;;;;6.10;3.33;;;;;;;15.30;67.48;99864.38;5065847;28;20060;-46
2023/07/14 04:49:34;;;;;;;9.15;3.17;;;;;;;15.29;67.72;99857.47;5067676;28;20048;-43
2023/07/14 04:52:02;;;;;;;8.88;4.00;;;;;;;15.32;67.69;99854.78;5057167;28;20097;-48
2023/07/14 04:54:29;;;;;;;7.60;3.53;;;;;;;15.31;66.84;99853.06;5067261;28;20178;-45
2023/07/14 04:56:55;;;;;;;5.47;3.20;;;;;;;15.31;67.38;99850.47;5066813;28;20068;-49
2023/07/14 04:59:22;;;;;;;6.65;4.10;;;;;;;15.30;67.78;99843.50;5062215;28;20675;-47
2023/07/14 05:01:49;;;;;;;7.90;4.57;;;;;;;15.31;67.96;99850.47;5066374;28;20404;-45
2023/07/14 05:04:15;;;;;;;7.15;3.55;;;;;;;15.30;68.02;99843.50;5067338;28;20101;-43
2023/07/14 05:06:42;;;;;;;6.90;3.72;;;;;;;15.30;68.05;99838.28;5067025;28;20048;-45
2023/07/14 05:09:10;;;;;;;7.57;3.83;;;;;;;15.29;68.04;99836.59;5067265;28;20044;-46
2023/07/14 05:11:38;;;;;;;6.55;3.10;;;;;;;15.29;68.32;99836.59;5066037;28;20524;-44
2023/07/14 05:14:06;;;;;;;10.20;3.95;;;;;;;15.28;68.30;99840.97;5065822;28;20048;-45
2023/07/14 05:16:33;;;;;;;5.82;3.80;;;;;;;15.31;68.48;99834.81;5066614;28;20114;-42
2023/07/14 05:18:59;;;;;;;5.78;3.20;;;;;;;15.31;68.28;99829.59;5071881;28;20044;-47
2023/07/14 05:21:26;;;;;;;8.55;3.50;;;;;;;15.31;68.84;99834.81;5066386;28;20094;-44
2023/07/14 05:23:53;;;;;;;5.32;1.98;;;;;;;15.33;68.65;99843.44;5065817;28;20599;-45
2023/07/14 05:26:19;;;;;;;5.80;3.30;;;;;;;15.34;68.41;99828.66;5064728;28;20056;-44
2023/07/14 05:28:46;;;;;;;4.68;1.67;;;;;;;15.38;68.75;99830.28;5065275;28;20413;-44
2023/07/14 05:31:13;;;;;;;4.90;3.33;;;;;;;15.41;68.63;99831.03;5065644;28;20059;-48
2023/07/14 05:33:40;;;;;;;7.40;3.53;;;;;;;15.46;68.95;99827.44;5065856;28;20041;-46
2023/07/14 05:36:07;;;;;;;5.95;2.97;;;;;;;15.50;68.95;99829.09;5066082;28;20139;-44
2023/07/14 05:38:35;;;;;;;6.28;3.85;;;;;;;15.53;68.37;99835.09;5065781;28;20044;-44
2023/07/14 05:41:04;;;;;;;5.90;2.67;;;;;;;15.58;68.78;99821.91;5066239;28;20123;-47
2023/07/14 05:43:31;;;;;;;5.85;3.10;;;;;;;15.62;69.06;99813.09;5065888;28;20079;-45
2023/07/14 05:45:58;;;;;;;9.70;2.15;;;;;;;15.67;69.29;99811.22;5066071;28;20446;-48
2023/07/14 05:48:25;;;;;;;4.93;3.47;;;;;;;15.71;68.45;99800.69;5063325;28;20052;-43
2023/07/14 05:50:52;;;;;;;6.53;3.33;;;;;;;15.78;68.43;99802.22;5066310;28;20428;-44
2023/07/14 05:53:19;;;;;;;5.30;2.60;;;;;;;15.82;68.65;99803.84;5062887;28;20064;-47
2023/07/14 05:55:47;;;;;;;4.38;3.30;;;;;;;15.85;68.64;99801.16;5063498;28;20044;-47
2023/07/14 05:58:15;;;;;;;5.13;3.05;;;;;;;15.86;68.56;99795.03;5064857;28;20049;-45
2023/07/14 06:00:42;;;;;;;5.13;3.13;;;;;;;15.91;68.52;99794.91;5066209;28;20040;-43
2023/07/14 06:03:13;;;;;;;4.22;3.20;;;;;;;15.93;68.92;99804.41;5065231;28;20052;-41
2023/07/14 06:05:40;;;;;;;7.57;3.33;;;;;;;15.92;68.41;99794.88;5064556;28;20098;-45
2023/07/14 06:08:07;;;;;;;8.65;3.28;;;;;;;15.92;68.63;99799.22;5065859;28;20503;-44
2023/07/14 06:10:34;;;;;;;7.75;4.13;;;;;;;15.87;69.02;99791.50;5063204;28;20045;-45
2023/07/14 06:13:02;;;;;;;7.07;3.28;;;;;;;15.90;68.82;99786.22;5064908;28;20040;-46
2023/07/14 06:15:30;;;;;;;7.32;2.53;;;;;;;15.93;68.72;99798.31;5065429;28;20048;-43
2023/07/14 06:17:57;;;;;;;5.43;3.33;;;;;;;15.96;68.79;99789.56;5064923;28;20066;-49
2023/07/14 06:20:24;;;;;;;5.82;3.20;;;;;;;15.98;69.25;99787.78;5062762;28;20519;-45
2023/07/14 06:22:51;;;;;;;6.82;3.17;;;;;;;15.98;69.05;99786.03;5065297;28;20052;-44
2023/07/14 06:25:18;;;;;;;7.38;2.90;;;;;;;15.99;69.13;99790.34;5064681;28;20091;-45
2023/07/14 06:27:45;;;;;;;4.35;2.10;;;;;;;16.00;69.33;99792.03;5065619;28;23091;-47
2023/07/14 06:30:13;;;;;;;5.15;3.03;;;;;;;16.02;69.57;99786.78;5048636;28;20094;-44
2023/07/14 06:32:39;;;;;;;6.25;2.92;;;;;;;16.06;68.78;99791.00;5064173;28;20079;-47
2023/07/14 06:35:08;;;;;;;4.07;3.10;;;;;;;16.08;69.08;99781.38;5065682;28;20155;-46
2023/07/14 06:37:34;;;;;;;5.97;3.38;;;;;;;16.08;69.03;99784.00;5065512;28;20052;-47
2023/07/14 06:40:02;;;;;;;9.52;3.55;;;;;;;16.07;69.69;99777.03;5060375;28;20102;-44
2023/07/14 06:42:29;;;;;;;7.88;3.00;;;;;;;16.06;69.32;99768.38;5060633;28;20076;-44
2023/07/14 06:44:56;;;;;;;6.82;3.78;;;;;;;16.06;69.67;99773.59;5066064;28;20056;-47
2023/07/14 06:47:22;;;;;;;4.75;3.60;;;;;;;16.06;70.16;99776.19;5062815;28;20052;-44
2023/07/14 06:49:49;;;;;;;4.65;3.00;;;;;;;16.06;69.37;99768.38;5064425;28;20037;-46
2023/07/14 06:52:16;;;;;;;7.05;3.28;;;;;;;16.08;69.58;99768.31;5066567;28;20139;-47
2023/07/14 06:54:45;;;;;;;6.95;4.32;;;;;;;16.10;69.80;99755.19;5065628;28;20420;-45
2023/07/14 06:57:11;;;;;;;7.50;3.42;;;;;;;16.11;70.02;99749.91;5065736;28;20067;-46
2023/07/14 06:59:38;;;;;;;6.07;3.75;;;;;;;16.11;70.02;99741.25;5064825;28;20575;-45
2023/07/14 07:02:06;;;;;;;7.63;3.88;;;;;;;16.12;69.80;99735.09;5064125;28;20040;-47
2023/07/14 07:04:33;;;;;;;7.35;3.83;;;;;;;16.13;69.90;99736.81;5064071;28;20056;-45
2023/07/14 07:06:59;;;;;;;8.32;2.20;;;;;;;16.17;69.79;99736.69;5065734;28;20407;-44
2023/07/14 07:09:27;;;;;;;5.65;3.65;;;;;;;16.18;70.26;99738.38;5064838;28;20370;-44
2023/07/14 07:11:54;;;;;;;8.60;4.30;;;;;;;16.21;70.06;99726.13;5065301;28;20147;-47
2023/07/14 07:14:21;;;;;;;6.40;4.07;;;;;;;16.24;69.79;99724.28;5062299;28;20060;-44
2023/07/14 07:16:47;;;;;;;7.20;4.18;;;;;;;16.25;70.44;99723.34;5063025;28;20052;-46
2023/07/14 07:19:15;;;;;;;7.20;4.18;;;;;;;16.26;70.38;99724.22;5063945;28;20044;-46
2023/07/14 07:21:42;;;;;;;8.32;4.07;;;;;;;16.26;70.45;99725.09;5065284;28;20045;-46
2023/07/14 07:24:09;;;;;;;5.18;3.25;;;;;;;16.27;70.65;99720.69;5065884;28;20507;-49
2023/07/14 07:26:36;;;;;;;5.38;3.65;;;;;;;16.27;70.62;99723.31;5053836;28;20060;-45
2023/07/14 07:29:06;;;;;;;6.78;4.38;;;;;;;16.24;70.02;99726.03;5065369;28;20051;-45
2023/07/14 07:31:33;;;;;;;6.43;3.65;;;;;;;16.23;70.31;99721.69;5063290;28;20123;-43
2023/07/14 07:34:00;;;;;;;6.45;3.78;;;;;;;16.22;70.34;99720.00;5065027;28;20540;-46
2023/07/14 07:36:27;;;;;;;5.78;3.65;;;;;;;16.21;70.50;99720.91;5068649;28;20045;-43
2023/07/14 07:38:54;;;;;;;7.57;3.88;;;;;;;16.18;70.78;99717.47;5065729;28;20047;-45
2023/07/14 07:41:24;;;;;;;8.20;3.95;;;;;;;16.16;71.19;99723.66;5068494;28;20052;-44
2023/07/14 07:43:52;;;;;;;5.60;3.58;;;;;;;16.14;70.74;99702.81;5067158;28;20059;-43
2023/07/14 07:46:21;;;;;;;7.15;3.90;;;;;;;16.09;71.89;99709.06;5066976;28;20062;-43
2023/07/14 07:48:49;;;;;;;8.23;4.38;;;;;;;16.11;72.15;99712.50;5065343;28;20079;-44
2023/07/14 07:51:16;;;;;;;8.88;4.22;;;;;;;16.12;71.42;99707.25;5067802;28;20145;-45
2023/07/14 07:53:43;;;;;;;6.60;3.75;;;;;;;16.13;71.55;99703.72;5067034;28;20131;-43
2023/07/14 07:56:10;;;;;;;7.78;4.00;;;;;;;16.14;71.65;99700.19;5067944;28;20052;-47
2023/07/14 07:58:37;;;;;;;9.73;4.25;;;;;;;16.17;72.14;99697.50;5068458;28;20109;-49
2023/07/14 08:01:05;;;;;;;7.15;4.40;;;;;;;16.16;71.62;99687.09;5068480;28;20101;-47
2023/07/14 08:03:34;;;;;;;7.43;4.18;;;;;;;16.17;71.89;99689.66;5067183;28;20048;-44
2023/07/14 08:06:04;;;;;;;7.65;4.43;;;;;;;16.16;72.17;99681.84;5065951;28;20044;-44
2023/07/14 08:08:32;;;;;;;6.93;3.85;;;;;;;16.13;72.16;99672.38;5066761;28;20668;-44
2023/07/14 08:11:00;;;;;;;5.47;3.72;;;;;;;16.14;72.04;99676.69;5068421;28;20131;-45
2023/07/14 08:13:28;;;;;;;8.65;4.63;;;;;;;16.16;72.59;99667.06;5067036;28;20102;-43
2023/07/14 08:15:57;;;;;;;7.63;3.85;;;;;;;16.18;72.29;99665.22;5067862;28;20048;-42
2023/07/14 08:18:25;;;;;;;5.05;3.20;;;;;;;16.23;72.40;99669.44;5068498;28;20618;-44
2023/07/14 08:20:53;;;;;;;6.85;4.18;;;;;;;16.26;72.69;99666.75;5065515;28;20059;-43
2023/07/14 08:23:21;;;;;;;7.90;3.88;;;;;;;16.31;73.08;99664.81;5067706;28;20048;-45
2023/07/14 08:25:58;;;;;;;8.35;4.35;;;;;;;16.31;73.06;99655.22;5066046;28;20510;-44
2023/07/14 08:28:26;;;;;;;7.90;2.92;;;;;;;16.36;72.56;99649.88;5066737;28;20416;-45
2023/07/14 08:30:55;;;;;;;8.35;3.95;;;;;;;16.39;73.20;99657.59;5065176;28;20052;-46
2023/07/14 08:33:24;;;;;;;8.60;2.95;;;;;;;16.44;73.22;99645.22;5067631;28;20833;-45
2023/07/14 08:35:52;;;;;;;8.05;4.28;;;;;;;16.47;72.41;99644.25;5065270;28;20063;-44
2023/07/14 08:38:20;;;;;;;9.25;3.80;;;;;;;16.52;72.88;99649.34;5065208;28;20063;-45
2023/07/14 08:40:53;;;;;;;6.70;3.97;;;;;;;16.60;73.54;99644.72;5066032;28;20131;-44
2023/07/14 08:43:59;;;;;;;6.22;3.95;;;;;;;16.65;73.25;99642.78;5066316;28;20048;-43
2023/07/14 08:46:37;;;;;;;5.53;2.42;;;;;;;16.72;73.15;99637.34;5064001;28;20547;-44
2023/07/14 08:49:14;;;;;;;5.60;2.70;;;;;;;16.77;73.13;99638.03;5065965;28;20403;-46
2023/07/14 08:51:44;;;;;;;7.65;4.38;;;;;;;16.78;73.20;99642.34;5064667;28;20044;-47
2023/07/14 08:54:16;;;;;;;5.82;3.78;;;;;;;16.75;73.67;99647.72;5066918;28;20061;-47
2023/07/14 08:56:44;;;;;;;8.52;2.70;;;;;;;16.81;73.59;99642.25;5067470;28;20427;-45
2023/07/14 08:59:34;;;;;;;8.82;3.92;;;;;;;16.78;73.88;99631.88;5067063;28;20405;-46
2023/07/14 09:02:12;;;;;;;9.50;4.68;;;;;;;16.82;73.91;99628.28;5064607;28;20047;-46
2023/07/14 09:04:42;;;;;;;6.50;4.35;;;;;;;16.85;73.55;99630.75;5065073;28;20051;-45
2023/07/14 09:07:14;;;;;;;5.78;3.75;;;;;;;16.86;73.51;99624.66;5064127;28;20064;-44
2023/07/14 09:09:41;;;;;;;7.90;3.47;;;;;;;16.83;73.75;99622.13;5066973;28;20148;-44
2023/07/14 09:14:57;;;;;;;5.57;1.88;;;;;;;16.78;73.31;99616.19;5023834;27;20398;-46
2023/07/14 09:28:13;;;;;;;5.35;3.35;;;;;;;16.76;73.42;99597.09;5051400;28;20405;-44
2023/07/14 09:30:42;;;;;;;5.07;3.45;;;;;;;16.78;73.57;99600.50;5026251;28;20086;-48
2023/07/14 09:33:15;;;;;;;6.05;2.15;;;;;;;16.80;73.95;99598.69;5021182;28;20414;-47
2023/07/14 09:35:44;;;;;;;4.68;2.90;;;;;;;16.69;73.82;99596.47;5018682;28;20501;-45
2023/07/14 09:38:22;;;;;;;7.80;2.95;;;;;;;16.74;73.43;99596.28;5019038;28;20042;-44
2023/07/14 09:40:56;;;;;;;4.65;3.00;;;;;;;16.78;73.71;99595.28;5020856;28;20077;-45
2023/07/14 09:43:22;;;;;;;5.15;2.42;;;;;;;16.78;73.80;99590.03;5021757;28;20773;-45
2023/07/14 09:45:53;;;;;;;8.93;3.95;;;;;;;16.71;74.14;99589.41;5021983;28;20048;-45
2023/07/14 09:48:25;;;;;;;5.65;3.55;;;;;;;16.78;73.77;99584.81;5023765;28;20084;-44
2023/07/14 09:53:29;;;;;;;9.10;3.03;;;;;;;16.83;74.12;99575.88;5089407;27;20383;-45
2023/07/14 09:56:03;;;;;;;6.40;2.45;;;;;;;16.85;74.42;99569.78;5066368;28;20044;-44
2023/07/14 09:58:31;;;;;;;5.30;2.15;;;;;;;16.86;74.53;99572.34;5080667;28;20649;-45
2023/07/14 10:01:04;;;;;;;7.15;2.80;;;;;;;16.86;74.19;99561.88;5072859;28;20044;-45
2023/07/14 10:03:42;;;;;;;5.95;2.35;;;;;;;16.87;74.72;99542.66;5102502;28;20677;-44
2023/07/14 10:06:16;;;;;;;7.72;2.05;;;;;;;16.83;75.01;99538.44;5075966;28;20048;-44
2023/07/14 10:08:47;;;;;;;6.28;2.30;;;;;;;16.75;74.84;99533.47;5100944;27;20048;-43
2023/07/14 10:16:42;;;;;;;7.88;3.15;;;;;;;16.45;75.17;99525.88;5034499;28;20435;-44
2023/07/14 10:19:16;;;;;;;4.25;2.47;;;;;;;16.41;74.63;99514.66;5004589;28;20049;-46
2023/07/14 10:21:55;;;;;;;3.55;2.97;;;;;;;16.39;75.15;99516.47;5001774;28;20387;-46
2023/07/14 10:24:23;;;;;;;3.65;2.65;;;;;;;16.42;74.69;99518.97;5004321;28;20054;-49
2023/07/14 10:26:58;;;;;;;4.63;3.10;;;;;;;16.38;74.87;99512.13;5015154;28;20050;-44
2023/07/14 10:29:27;;;;;;;5.85;3.20;;;;;;;16.40;75.19;99514.69;5008812;28;20057;-45
2023/07/14 10:32:03;;;;;;;5.15;3.35;;;;;;;16.43;74.50;99504.13;5005573;28;20038;-44
2023/07/14 10:37:27;;;;;;;3.75;1.83;;;;;;;16.33;74.89;99485.31;5125317;27;20834;-45
2023/07/14 10:40:00;;;;;;;4.22;0.90;;;;;;;16.24;75.72;99477.81;5075294;28;20054;-48
2023/07/14 10:42:32;;;;;;;2.97;1.23;;;;;;;16.22;75.51;99466.56;5089975;28;20040;-44
2023/07/14 10:44:59;;;;;;;3.33;1.25;;;;;;;16.18;75.58;99466.66;5094524;28;20446;-47
2023/07/14 10:47:33;;;;;;;4.22;1.35;;;;;;;16.25;75.04;99458.63;5096979;28;20101;-47
2023/07/14 10:50:07;;;;;;;3.17;1.40;;;;;;;16.24;75.21;99459.53;5080573;28;20113;-45
2023/07/14 10:52:39;;;;;;;4.43;1.45;;;;;;;16.27;75.43;99455.03;5103115;28;20044;-44
2023/07/14 10:55:19;;;;;;;2.80;1.50;;;;;;;16.20;75.64;99443.09;5097636;28;20052;-47
2023/07/14 10:57:52;;;;;;;3.78;1.48;;;;;;;16.16;75.76;99441.50;5098227;28;20488;-42
2023/07/14 11:00:29;;;;;;;3.88;1.80;;;;;;;16.25;75.66;99427.28;5095501;28;20047;-44
2023/07/14 11:03:11;;;;;;;6.35;1.65;;;;;;;16.23;75.60;99418.63;5102877;28;20051;-45
2023/07/14 11:05:39;;;;;;;5.07;1.92;;;;;;;16.29;75.47;99410.56;5075250;28;20101;-43
2023/07/14 11:08:09;;;;;;;3.38;1.70;;;;;;;16.18;76.28;99409.19;5097728;28;20052;-46
2023/07/14 11:16:04;;;;;;;5.70;1.92;;;;;;;16.30;75.97;99391.34;5052023;27;20483;-48
2023/07/14 11:18:58;;;;;;;4.70;2.13;;;;;;;16.25;75.94;99382.84;5016038;28;20041;-46
2023/07/14 11:29:22;;;;;;;4.93;2.10;;;;;;;16.25;76.45;99359.34;5054973;27;20397;-44
2023/07/14 11:31:53;;;;;;;8.95;2.70;;;;;;;16.21;76.27;99357.75;5045538;28;20415;-44
2023/07/14 11:34:43;;;;;;;6.50;2.03;;;;;;;16.14;76.06;99342.28;5021392;28;20096;-45
2023/07/14 11:39:56;;;;;;;8.38;2.50;;;;;;;16.24;76.24;99334.13;5042922;28;20380;-45
2023/07/14 11:45:11;;;;;;;5.78;3.88;;;;;;;16.10;76.92;99319.81;5028313;28;20398;-49
2023/07/14 11:47:41;;;;;;;8.30;4.00;;;;;;;16.17;76.14;99313.44;5022237;28;20042;-45
2023/07/14 11:55:40;;;;;;;8.45;2.08;;;;;;;16.21;76.84;99297.66;5044332;27;20401;-44
2023/07/14 11:58:28;;;;;;;5.50;2.00;;;;;;;16.25;77.49;99294.00;5018154;28;20049;-43
2023/07/14 12:01:16;;;;;;;6.50;2.42;;;;;;;16.30;77.30;99292.06;4995761;28;20053;-42
2023/07/14 12:03:52;;;;;;;5.55;2.17;;;;;;;16.32;77.54;99279.81;5030701;28;20676;-44
2023/07/14 12:17:43;;;;;;;7.75;2.95;;;;;;;16.27;77.68;99240.78;5035622;28;20846;-44
2023/07/14 12:23:05;;;;;;;7.45;2.03;;;;;;;16.11;77.70;99227.47;5055699;28;20748;-45
2023/07/14 12:25:40;;;;;;;4.97;2.13;;;;;;;16.17;77.43;99227.25;5067806;28;20135;-43
2023/07/14 12:28:14;;;;;;;4.97;2.55;;;;;;;16.10;78.51;99220.53;5071639;28;20102;-44
2023/07/14 12:30:49;;;;;;;7.13;2.35;;;;;;;16.11;78.45;99209.19;5074904;28;20605;-44
2023/07/14 12:33:17;;;;;;;5.25;2.10;;;;;;;16.15;78.15;99200.31;5072106;28;20599;-43
2023/07/14 12:35:44;;;;;;;7.13;3.13;;;;;;;16.13;78.33;99201.28;5071809;28;20446;-47
2023/07/14 12:38:15;;;;;;;6.07;3.05;;;;;;;16.14;78.32;99197.78;5068882;28;20070;-43
2023/07/14 12:40:42;;;;;;;8.23;2.75;;;;;;;16.14;78.37;99182.94;5060947;28;20041;-44
2023/07/14 12:43:23;;;;;;;8.25;1.95;;;;;;;16.10;78.68;99181.38;5071326;28;20048;-45
2023/07/14 12:45:50;;;;;;;6.30;3.17;;;;;;;15.88;79.51;99179.56;5071097;28;20040;-43
2023/07/14 12:48:17;;;;;;;7.85;2.75;;;;;;;15.92;79.48;99168.09;5070841;28;20095;-43
2023/07/14 12:50:44;;;;;;;6.60;2.40;;;;;;;15.85;80.03;99166.63;5054880;28;20053;-44
2023/07/14 12:53:15;;;;;;;9.05;3.20;;;;;;;15.91;79.64;99176.00;5070797;28;20515;-44
2023/07/14 12:55:45;;;;;;;4.75;2.35;;;;;;;15.82;80.93;99166.75;5067604;28;20052;-44